sensor_id;sensor_type;location;lat;lon;timestamp;pressure;altitude;pressure_sealevel;temperature;humidity
71573;BME280;59408;51.032;9.410;2023-02-28T00:02:07;100305.38;;;-3.04;90.61
71573;BME280;59408;51.032;9.410;2023-02-28T00:04:35;100300.44;;;-3.01;90.40
71573;BME280;59408;51.032;9.410;2023-02-28T00:07:01;100296.94;;;-3.01;90.20
71573;BME280;59408;51.032;9.410;2023-02-28T00:09:28;100295.69;;;-2.99;89.40
71573;BME280;59408;51.032;9.410;2023-02-28T00:11:54;100297.31;;;-2.98;89.91
71573;BME280;59408;51.032;9.410;2023-02-28T00:14:21;100293.59;;;-2.97;89.50
71573;BME280;59408;51.032;9.410;2023-02-28T00:16:47;100291.75;;;-2.96;89.97
71573;BME280;59408;51.032;9.410;2023-02-28T00:19:14;100298.34;;;-2.99;89.76
71573;BME280;59408;51.032;9.410;2023-02-28T00:21:42;100295.69;;;-2.99;90.38
71573;BME280;59408;51.032;9.410;2023-02-28T00:24:09;100298.94;;;-2.97;89.64
71573;BME280;59408;51.032;9.410;2023-02-28T00:26:35;100298.31;;;-2.92;89.88
71573;BME280;59408;51.032;9.410;2023-02-28T00:29:02;100302.56;;;-2.91;89.76
71573;BME280;59408;51.032;9.410;2023-02-28T00:31:28;100296.22;;;-2.90;89.90
71573;BME280;59408;51.032;9.410;2023-02-28T00:33:55;100295.56;;;-2.85;88.73
71573;BME280;59408;51.032;9.410;2023-02-28T00:36:22;100297.63;;;-2.88;89.20
71573;BME280;59408;51.032;9.410;2023-02-28T00:38:50;100292.97;;;-2.92;88.75
71573;BME280;59408;51.032;9.410;2023-02-28T00:41:16;100291.38;;;-3.00;89.13
71573;BME280;59408;51.032;9.410;2023-02-28T00:43:43;100295.31;;;-3.02;88.91
71573;BME280;59408;51.032;9.410;2023-02-28T00:46:10;100286.31;;;-3.08;88.58
71573;BME280;59408;51.032;9.410;2023-02-28T00:48:37;100281.19;;;-3.09;88.55
71573;BME280;59408;51.032;9.410;2023-02-28T00:51:04;100277.75;;;-3.10;89.02
71573;BME280;59408;51.032;9.410;2023-02-28T00:53:31;100294.78;;;-3.11;89.21
71573;BME280;59408;51.032;9.410;2023-02-28T00:55:59;100280.41;;;-3.10;89.09
71573;BME280;59408;51.032;9.410;2023-02-28T00:58:25;100293.13;;;-3.12;88.66
71573;BME280;59408;51.032;9.410;2023-02-28T01:00:53;100284.94;;;-3.10;88.61
71573;BME280;59408;51.032;9.410;2023-02-28T01:03:20;100281.19;;;-3.09;88.18
71573;BME280;59408;51.032;9.410;2023-02-28T01:05:47;100284.03;;;-3.04;87.83
71573;BME280;59408;51.032;9.410;2023-02-28T01:08:14;100283.59;;;-3.01;87.42
71573;BME280;59408;51.032;9.410;2023-02-28T01:10:41;100287.38;;;-2.91;86.10
71573;BME280;59408;51.032;9.410;2023-02-28T01:13:10;100290.44;;;-2.87;85.67
71573;BME280;59408;51.032;9.410;2023-02-28T01:15:38;100293.94;;;-2.86;85.60
71573;BME280;59408;51.032;9.410;2023-02-28T01:18:06;100296.59;;;-2.86;86.29
71573;BME280;59408;51.032;9.410;2023-02-28T01:20:36;100288.00;;;-2.89;86.51
71573;BME280;59408;51.032;9.410;2023-02-28T01:23:02;100290.22;;;-2.85;85.24
71573;BME280;59408;51.032;9.410;2023-02-28T01:25:29;100290.59;;;-2.82;85.82
71573;BME280;59408;51.032;9.410;2023-02-28T01:27:56;100294.88;;;-2.81;86.26
71573;BME280;59408;51.032;9.410;2023-02-28T01:30:24;100291.56;;;-2.76;85.74
71573;BME280;59408;51.032;9.410;2023-02-28T01:32:51;100287.06;;;-2.76;85.96
71573;BME280;59408;51.032;9.410;2023-02-28T01:35:17;100285.41;;;-2.77;86.18
71573;BME280;59408;51.032;9.410;2023-02-28T01:37:44;100286.88;;;-2.81;85.98
71573;BME280;59408;51.032;9.410;2023-02-28T01:40:11;100290.84;;;-2.83;86.37
71573;BME280;59408;51.032;9.410;2023-02-28T01:42:38;100290.44;;;-2.87;86.08
71573;BME280;59408;51.032;9.410;2023-02-28T01:45:17;100291.25;;;-2.86;86.16
71573;BME280;59408;51.032;9.410;2023-02-28T01:47:48;100283.31;;;-2.93;86.37
71573;BME280;59408;51.032;9.410;2023-02-28T01:50:19;100282.03;;;-2.91;86.03
71573;BME280;59408;51.032;9.410;2023-02-28T01:52:47;100278.56;;;-2.91;85.42
71573;BME280;59408;51.032;9.410;2023-02-28T01:55:16;100269.16;;;-2.94;85.82
71573;BME280;59408;51.032;9.410;2023-02-28T01:57:46;100267.75;;;-2.96;85.89
71573;BME280;59408;51.032;9.410;2023-02-28T02:00:17;100272.88;;;-2.95;85.65
71573;BME280;59408;51.032;9.410;2023-02-28T02:02:48;100265.06;;;-2.96;86.18
71573;BME280;59408;51.032;9.410;2023-02-28T02:05:19;100273.06;;;-2.96;85.73
71573;BME280;59408;51.032;9.410;2023-02-28T02:07:48;100253.78;;;-2.98;84.90
71573;BME280;59408;51.032;9.410;2023-02-28T02:10:18;100264.69;;;-3.00;84.70
71573;BME280;59408;51.032;9.410;2023-02-28T02:12:56;100265.50;;;-2.99;84.55
71573;BME280;59408;51.032;9.410;2023-02-28T02:15:30;100253.19;;;-3.00;84.02
71573;BME280;59408;51.032;9.410;2023-02-28T02:18:04;100255.72;;;-3.05;84.71
71573;BME280;59408;51.032;9.410;2023-02-28T02:24:08;100250.00;;;-3.09;84.54
71573;BME280;59408;51.032;9.410;2023-02-28T02:26:54;100248.81;;;-3.13;84.66
71573;BME280;59408;51.032;9.410;2023-02-28T02:29:40;100252.94;;;-3.17;85.16
71573;BME280;59408;51.032;9.410;2023-02-28T02:32:45;100248.88;;;-3.19;85.28
71573;BME280;59408;51.032;9.410;2023-02-28T02:35:18;100252.94;;;-3.17;85.56
71573;BME280;59408;51.032;9.410;2023-02-28T02:37:57;100248.41;;;-3.16;85.03
71573;BME280;59408;51.032;9.410;2023-02-28T02:40:31;100254.97;;;-3.12;84.88
71573;BME280;59408;51.032;9.410;2023-02-28T02:43:02;100254.16;;;-3.13;84.94
71573;BME280;59408;51.032;9.410;2023-02-28T02:45:33;100248.81;;;-3.13;84.96
71573;BME280;59408;51.032;9.410;2023-02-28T02:48:01;100249.16;;;-3.09;84.02
71573;BME280;59408;51.032;9.410;2023-02-28T02:50:33;100248.31;;;-3.03;83.23
71573;BME280;59408;51.032;9.410;2023-02-28T02:53:02;100249.50;;;-2.99;83.56
71573;BME280;59408;51.032;9.410;2023-02-28T02:55:32;100246.00;;;-3.00;83.97
71573;BME280;59408;51.032;9.410;2023-02-28T02:58:01;100253.19;;;-3.00;83.43
71573;BME280;59408;51.032;9.410;2023-02-28T03:00:33;100257.28;;;-2.98;83.02
71573;BME280;59408;51.032;9.410;2023-02-28T03:03:01;100257.94;;;-3.02;83.21
71573;BME280;59408;51.032;9.410;2023-02-28T03:05:34;100257.94;;;-3.02;83.49
71573;BME280;59408;51.032;9.410;2023-02-28T03:08:03;100255.06;;;-3.01;83.07
71573;BME280;59408;51.032;9.410;2023-02-28T03:10:37;100255.84;;;-3.00;83.13
71573;BME280;59408;51.032;9.410;2023-02-28T03:13:13;100257.88;;;-2.96;82.27
71573;BME280;59408;51.032;9.410;2023-02-28T03:15:53;100250.47;;;-2.94;82.60
71573;BME280;59408;51.032;9.410;2023-02-28T03:18:32;100259.94;;;-2.98;82.63
71573;BME280;59408;51.032;9.410;2023-02-28T03:21:10;100248.44;;;-2.98;82.55
71573;BME280;59408;51.032;9.410;2023-02-28T03:23:44;100251.72;;;-2.96;82.59
71573;BME280;59408;51.032;9.410;2023-02-28T03:26:13;100245.19;;;-3.00;82.87
71573;BME280;59408;51.032;9.410;2023-02-28T03:28:49;100255.84;;;-3.00;82.89
71573;BME280;59408;51.032;9.410;2023-02-28T03:31:20;100257.75;;;-3.01;83.39
71573;BME280;59408;51.032;9.410;2023-02-28T03:33:51;100249.72;;;-3.01;83.74
71573;BME280;59408;51.032;9.410;2023-02-28T03:36:23;100246.59;;;-2.98;82.71
71573;BME280;59408;51.032;9.410;2023-02-28T03:38:54;100250.09;;;-2.97;82.69
71573;BME280;59408;51.032;9.410;2023-02-28T03:41:25;100246.81;;;-2.99;82.45
71573;BME280;59408;51.032;9.410;2023-02-28T03:43:57;100245.78;;;-2.98;82.52
71573;BME280;59408;51.032;9.410;2023-02-28T03:46:28;100248.91;;;-3.01;82.64
71573;BME280;59408;51.032;9.410;2023-02-28T03:49:02;100245.63;;;-3.03;82.89
71573;BME280;59408;51.032;9.410;2023-02-28T03:51:33;100253.44;;;-3.02;82.52
71573;BME280;59408;51.032;9.410;2023-02-28T03:54:04;100254.91;;;-3.06;83.41
71573;BME280;59408;51.032;9.410;2023-02-28T03:56:34;100247.91;;;-3.07;82.92
71573;BME280;59408;51.032;9.410;2023-02-28T03:59:07;100250.44;;;-3.12;83.83
71573;BME280;59408;51.032;9.410;2023-02-28T04:01:39;100255.41;;;-3.15;83.71
71573;BME280;59408;51.032;9.410;2023-02-28T04:04:07;100254.78;;;-3.17;84.03
71573;BME280;59408;51.032;9.410;2023-02-28T04:06:36;100256.50;;;-3.23;84.50
71573;BME280;59408;51.032;9.410;2023-02-28T04:09:04;100248.91;;;-3.26;84.21
71573;BME280;59408;51.032;9.410;2023-02-28T04:11:33;100255.28;;;-3.27;84.27
71573;BME280;59408;51.032;9.410;2023-02-28T04:14:00;100254.25;;;-3.26;83.22
71573;BME280;59408;51.032;9.410;2023-02-28T04:16:27;100254.78;;;-3.17;80.63
71573;BME280;59408;51.032;9.410;2023-02-28T04:19:01;100257.63;;;-3.12;79.70
71573;BME280;59408;51.032;9.410;2023-02-28T04:21:28;100254.56;;;-3.16;79.93
71573;BME280;59408;51.032;9.410;2023-02-28T04:23:57;100253.97;;;-3.18;80.47
71573;BME280;59408;51.032;9.410;2023-02-28T04:26:23;100254.22;;;-3.19;80.06
71573;BME280;59408;51.032;9.410;2023-02-28T04:28:50;100258.72;;;-3.20;80.24
71573;BME280;59408;51.032;9.410;2023-02-28T04:31:17;100256.88;;;-3.19;79.85
71573;BME280;59408;51.032;9.410;2023-02-28T04:33:43;100254.44;;;-3.21;79.92
71573;BME280;59408;51.032;9.410;2023-02-28T04:36:10;100264.88;;;-3.19;79.79
71573;BME280;59408;51.032;9.410;2023-02-28T04:38:37;100263.06;;;-3.26;79.71
71573;BME280;59408;51.032;9.410;2023-02-28T04:41:06;100257.91;;;-3.20;79.09
71573;BME280;59408;51.032;9.410;2023-02-28T04:43:33;100259.69;;;-3.14;78.45
71573;BME280;59408;51.032;9.410;2023-02-28T04:46:01;100261.13;;;-3.12;77.82
71573;BME280;59408;51.032;9.410;2023-02-28T04:48:30;100255.13;;;-3.07;77.66
71573;BME280;59408;51.032;9.410;2023-02-28T04:51:00;100258.00;;;-3.09;78.28
71573;BME280;59408;51.032;9.410;2023-02-28T04:53:27;100257.19;;;-3.09;78.08
71573;BME280;59408;51.032;9.410;2023-02-28T04:55:54;100261.47;;;-3.08;77.66
71573;BME280;59408;51.032;9.410;2023-02-28T04:58:22;100257.75;;;-3.01;77.49
71573;BME280;59408;51.032;9.410;2023-02-28T05:00:49;100266.28;;;-2.92;76.14
71573;BME280;59408;51.032;9.410;2023-02-28T05:03:15;100265.69;;;-2.94;77.42
71573;BME280;59408;51.032;9.410;2023-02-28T05:05:42;100257.28;;;-2.98;76.30
71573;BME280;59408;51.032;9.410;2023-02-28T05:08:08;100274.09;;;-2.97;76.64
71573;BME280;59408;51.032;9.410;2023-02-28T05:10:35;100267.94;;;-2.98;75.97
71573;BME280;59408;51.032;9.410;2023-02-28T05:13:02;100273.22;;;-2.91;75.92
71573;BME280;59408;51.032;9.410;2023-02-28T05:15:30;100278.56;;;-2.91;75.79
71573;BME280;59408;51.032;9.410;2023-02-28T05:17:56;100271.84;;;-2.94;76.59
71573;BME280;59408;51.032;9.410;2023-02-28T05:20:23;100272.88;;;-2.95;76.50
71573;BME280;59408;51.032;9.410;2023-02-28T05:22:50;100268.56;;;-2.96;76.18
71573;BME280;59408;51.032;9.410;2023-02-28T05:25:19;100276.56;;;-2.96;76.33
71573;BME280;59408;51.032;9.410;2023-02-28T05:27:46;100275.09;;;-2.92;75.26
71573;BME280;59408;51.032;9.410;2023-02-28T05:30:13;100275.88;;;-2.91;76.21
71573;BME280;59408;51.032;9.410;2023-02-28T05:32:41;100277.38;;;-2.95;76.59
71573;BME280;59408;51.032;9.410;2023-02-28T05:35:08;100284.97;;;-2.92;76.86
71573;BME280;59408;51.032;9.410;2023-02-28T05:37:35;100281.22;;;-2.91;76.66
71573;BME280;59408;51.032;9.410;2023-02-28T05:40:02;100288.66;;;-2.93;76.92
71573;BME280;59408;51.032;9.410;2023-02-28T05:42:29;100284.16;;;-2.93;76.81
71573;BME280;59408;51.032;9.410;2023-02-28T05:44:55;100291.53;;;-2.95;76.70
71573;BME280;59408;51.032;9.410;2023-02-28T05:47:22;100288.88;;;-2.95;76.64
71573;BME280;59408;51.032;9.410;2023-02-28T05:49:50;100288.19;;;-2.90;76.23
71573;BME280;59408;51.032;9.410;2023-02-28T05:52:16;100285.31;;;-2.89;75.70
71573;BME280;59408;51.032;9.410;2023-02-28T05:54:43;100290.84;;;-2.83;75.89
71573;BME280;59408;51.032;9.410;2023-02-28T05:57:09;100293.03;;;-2.80;75.40
71573;BME280;59408;51.032;9.410;2023-02-28T05:59:49;100288.97;;;-2.83;75.94
71573;BME280;59408;51.032;9.410;2023-02-28T06:02:17;100278.50;;;-2.84;75.35
71573;BME280;59408;51.032;9.410;2023-02-28T06:04:44;100288.00;;;-2.89;75.08
71573;BME280;59408;51.032;9.410;2023-02-28T06:07:12;100279.03;;;-2.94;74.36
71573;BME280;59408;51.032;9.410;2023-02-28T06:09:39;100289.31;;;-2.98;74.34
71573;BME280;59408;51.032;9.410;2023-02-28T06:12:06;100288.94;;;-3.01;74.19
71573;BME280;59408;51.032;9.410;2023-02-28T06:14:33;100288.78;;;-3.06;74.26
71573;BME280;59408;51.032;9.410;2023-02-28T06:17:01;100299.94;;;-3.16;74.88
71573;BME280;59408;51.032;9.410;2023-02-28T06:19:27;100297.47;;;-3.17;73.41
71573;BME280;59408;51.032;9.410;2023-02-28T06:21:55;100304.91;;;-3.19;73.40
71573;BME280;59408;51.032;9.410;2023-02-28T06:24:24;100310.00;;;-3.18;72.51
71573;BME280;59408;51.032;9.410;2023-02-28T06:26:51;100322.78;;;-3.20;73.05
71573;BME280;59408;51.032;9.410;2023-02-28T06:29:18;100318.06;;;-3.24;73.79
71573;BME280;59408;51.032;9.410;2023-02-28T06:31:45;100316.00;;;-3.22;73.39
71573;BME280;59408;51.032;9.410;2023-02-28T06:34:12;100320.03;;;-3.13;72.48
71573;BME280;59408;51.032;9.410;2023-02-28T06:36:40;100325.97;;;-3.11;72.66
71573;BME280;59408;51.032;9.410;2023-02-28T06:39:08;100323.88;;;-3.09;72.46
71573;BME280;59408;51.032;9.410;2023-02-28T06:41:36;100328.25;;;-3.15;73.16
71573;BME280;59408;51.032;9.410;2023-02-28T06:44:20;100332.84;;;-3.22;73.26
71573;BME280;59408;51.032;9.410;2023-02-28T06:46:46;100331.41;;;-3.24;73.88
71573;BME280;59408;51.032;9.410;2023-02-28T06:49:14;100334.50;;;-3.28;74.08
71573;BME280;59408;51.032;9.410;2023-02-28T06:51:42;100336.38;;;-3.28;74.40
71573;BME280;59408;51.032;9.410;2023-02-28T06:54:09;100334.94;;;-3.31;74.18
71573;BME280;59408;51.032;9.410;2023-02-28T06:56:38;100331.06;;;-3.35;74.78
71573;BME280;59408;51.032;9.410;2023-02-28T06:59:04;100345.22;;;-3.34;74.76
71573;BME280;59408;51.032;9.410;2023-02-28T07:01:31;100348.09;;;-3.36;74.86
71573;BME280;59408;51.032;9.410;2023-02-28T07:03:59;100343.16;;;-3.32;75.18
71573;BME280;59408;51.032;9.410;2023-02-28T07:06:26;100342.50;;;-3.28;75.57
71573;BME280;59408;51.032;9.410;2023-02-28T07:08:54;100346.78;;;-3.20;74.66
71573;BME280;59408;51.032;9.410;2023-02-28T07:11:22;100342.41;;;-3.14;75.15
71573;BME280;59408;51.032;9.410;2023-02-28T07:13:50;100346.03;;;-3.02;74.52
71573;BME280;59408;51.032;9.410;2023-02-28T07:16:17;100342.25;;;-2.95;74.79
71573;BME280;59408;51.032;9.410;2023-02-28T07:18:44;100345.06;;;-2.90;74.38
71573;BME280;59408;51.032;9.410;2023-02-28T07:21:11;100343.44;;;-2.91;74.34
71573;BME280;59408;51.032;9.410;2023-02-28T07:23:38;100350.13;;;-2.81;73.86
71573;BME280;59408;51.032;9.410;2023-02-28T07:26:05;100347.97;;;-2.66;73.83
71573;BME280;59408;51.032;9.410;2023-02-28T07:28:32;100340.69;;;-2.59;74.00
71573;BME280;59408;51.032;9.410;2023-02-28T07:31:04;100343.69;;;-2.49;73.52
71573;BME280;59408;51.032;9.410;2023-02-28T07:33:31;100340.19;;;-2.49;73.69
71573;BME280;59408;51.032;9.410;2023-02-28T07:36:00;100342.44;;;-2.46;74.13
71573;BME280;59408;51.032;9.410;2023-02-28T07:38:27;100341.53;;;-2.40;73.92
71573;BME280;59408;51.032;9.410;2023-02-28T07:40:54;100342.34;;;-2.40;74.76
71573;BME280;59408;51.032;9.410;2023-02-28T07:43:20;100342.13;;;-2.38;74.65
71573;BME280;59408;51.032;9.410;2023-02-28T07:45:47;100341.66;;;-2.35;75.11
71573;BME280;59408;51.032;9.410;2023-02-28T07:48:15;100351.03;;;-2.26;75.45
71573;BME280;59408;51.032;9.410;2023-02-28T07:50:42;100338.25;;;-2.06;75.02
71573;BME280;59408;51.032;9.410;2023-02-28T07:53:08;100347.22;;;-1.82;74.46
71573;BME280;59408;51.032;9.410;2023-02-28T07:55:35;100349.50;;;-1.67;74.36
71573;BME280;59408;51.032;9.410;2023-02-28T07:58:01;100350.81;;;-1.58;72.96
71573;BME280;59408;51.032;9.410;2023-02-28T08:00:28;100349.53;;;-1.56;73.83
71573;BME280;59408;51.032;9.410;2023-02-28T08:02:55;100349.06;;;-1.53;73.42
71573;BME280;59408;51.032;9.410;2023-02-28T08:05:23;100345.84;;;-1.43;73.51
71573;BME280;59408;51.032;9.410;2023-02-28T08:07:49;100343.88;;;-1.36;73.94
71573;BME280;59408;51.032;9.410;2023-02-28T08:10:16;100342.16;;;-1.30;72.75
71573;BME280;59408;51.032;9.410;2023-02-28T08:12:43;100344.16;;;-1.26;72.51
71573;BME280;59408;51.032;9.410;2023-02-28T08:15:10;100345.22;;;-1.15;72.66
71573;BME280;59408;51.032;9.410;2023-02-28T08:17:36;100343.63;;;-1.05;71.08
71573;BME280;59408;51.032;9.410;2023-02-28T08:20:04;100349.56;;;-0.91;70.32
71573;BME280;59408;51.032;9.410;2023-02-28T08:22:32;100348.06;;;-0.87;68.67
71573;BME280;59408;51.032;9.410;2023-02-28T08:24:58;100342.81;;;-0.82;67.24
71573;BME280;59408;51.032;9.410;2023-02-28T08:27:25;100344.81;;;-0.66;66.64
71573;BME280;59408;51.032;9.410;2023-02-28T08:29:52;100338.75;;;-0.49;65.93
71573;BME280;59408;51.032;9.410;2023-02-28T08:32:18;100334.31;;;-0.44;64.20
71573;BME280;59408;51.032;9.410;2023-02-28T08:34:55;100343.63;;;-0.35;61.64
71573;BME280;59408;51.032;9.410;2023-02-28T08:37:22;100349.06;;;-0.18;62.54
71573;BME280;59408;51.032;9.410;2023-02-28T08:39:50;100345.91;;;-0.03;61.46
71573;BME280;59408;51.032;9.410;2023-02-28T08:42:19;100343.31;;;0.02;61.33
71573;BME280;59408;51.032;9.410;2023-02-28T08:44:46;100344.97;;;-0.09;61.37
71573;BME280;59408;51.032;9.410;2023-02-28T08:47:12;100351.56;;;-0.28;61.43
71573;BME280;59408;51.032;9.410;2023-02-28T08:49:39;100358.56;;;-0.39;62.02
71573;BME280;59408;51.032;9.410;2023-02-28T08:52:05;100350.75;;;-0.52;61.12
71573;BME280;59408;51.032;9.410;2023-02-28T08:54:32;100365.75;;;-0.63;62.46
71573;BME280;59408;51.032;9.410;2023-02-28T08:57:00;100359.03;;;-0.65;63.19
71573;BME280;59408;51.032;9.410;2023-02-28T08:59:28;100367.41;;;-0.62;61.79
71573;BME280;59408;51.032;9.410;2023-02-28T09:01:55;100365.66;;;-0.56;60.80
71573;BME280;59408;51.032;9.410;2023-02-28T09:04:21;100366.69;;;-0.45;60.76
71573;BME280;59408;51.032;9.410;2023-02-28T09:06:50;100357.28;;;-0.48;61.39
71573;BME280;59408;51.032;9.410;2023-02-28T09:09:17;100358.31;;;-0.49;61.23
71573;BME280;59408;51.032;9.410;2023-02-28T09:11:44;100356.19;;;-0.23;60.50
71573;BME280;59408;51.032;9.410;2023-02-28T09:14:12;100354.94;;;-0.33;60.71
71573;BME280;59408;51.032;9.410;2023-02-28T09:16:38;100346.66;;;-0.43;61.82
71573;BME280;59408;51.032;9.410;2023-02-28T09:19:05;100352.16;;;-0.49;61.57
71573;BME280;59408;51.032;9.410;2023-02-28T09:21:32;100347.47;;;-0.42;62.05
71573;BME280;59408;51.032;9.410;2023-02-28T09:23:58;100344.44;;;-0.34;62.10
71573;BME280;59408;51.032;9.410;2023-02-28T09:26:27;100343.69;;;-0.18;62.35
71573;BME280;59408;51.032;9.410;2023-02-28T09:29:08;100337.63;;;-0.02;60.91
71573;BME280;59408;51.032;9.410;2023-02-28T09:31:36;100350.53;;;0.01;60.92
71573;BME280;59408;51.032;9.410;2023-02-28T09:34:04;100352.31;;;-0.04;61.12
71573;BME280;59408;51.032;9.410;2023-02-28T09:36:30;100344.81;;;0.38;60.84
71573;BME280;59408;51.032;9.410;2023-02-28T09:39:10;100352.22;;;0.76;58.45
71573;BME280;59408;51.032;9.410;2023-02-28T09:41:38;100348.50;;;0.94;57.78
71573;BME280;59408;51.032;9.410;2023-02-28T09:44:07;100352.69;;;0.56;57.88
71573;BME280;59408;51.032;9.410;2023-02-28T09:46:40;100357.94;;;0.34;59.76
71573;BME280;59408;51.032;9.410;2023-02-28T09:49:12;100356.69;;;0.13;59.86
71573;BME280;59408;51.032;9.410;2023-02-28T09:51:46;100363.13;;;0.01;59.20
71573;BME280;59408;51.032;9.410;2023-02-28T09:54:17;100359.78;;;-0.06;60.24
71573;BME280;59408;51.032;9.410;2023-02-28T09:56:47;100350.91;;;0.05;61.27
71573;BME280;59408;51.032;9.410;2023-02-28T09:59:26;100348.88;;;0.12;60.15
71573;BME280;59408;51.032;9.410;2023-02-28T10:02:03;100355.63;;;0.26;60.39
71573;BME280;59408;51.032;9.410;2023-02-28T10:04:42;100352.16;;;0.14;59.58
71573;BME280;59408;51.032;9.410;2023-02-28T10:07:18;100354.47;;;0.10;59.65
71573;BME280;59408;51.032;9.410;2023-02-28T10:09:52;100356.25;;;0.05;59.17
71573;BME280;59408;51.032;9.410;2023-02-28T10:12:20;100349.84;;;0.06;59.59
71573;BME280;59408;51.032;9.410;2023-02-28T10:14:49;100358.94;;;0.05;59.36
71573;BME280;59408;51.032;9.410;2023-02-28T10:17:21;100354.81;;;0.26;59.00
71573;BME280;59408;51.032;9.410;2023-02-28T10:19:56;100360.00;;;0.44;59.65
71573;BME280;59408;51.032;9.410;2023-02-28T10:22:28;100360.09;;;0.66;59.42
71573;BME280;59408;51.032;9.410;2023-02-28T10:24:57;100350.31;;;1.21;58.42
71573;BME280;59408;51.032;9.410;2023-02-28T10:27:25;100346.03;;;1.59;57.00
71573;BME280;59408;51.032;9.410;2023-02-28T10:29:56;100348.09;;;2.39;56.27
71573;BME280;59408;51.032;9.410;2023-02-28T10:32:27;100350.88;;;2.71;54.01
71573;BME280;59408;51.032;9.410;2023-02-28T10:34:57;100345.91;;;3.22;52.68
71573;BME280;59408;51.032;9.410;2023-02-28T10:37:25;100345.44;;;3.30;53.15
71573;BME280;59408;51.032;9.410;2023-02-28T10:39:52;100337.88;;;3.69;50.95
71573;BME280;59408;51.032;9.410;2023-02-28T10:42:21;100345.78;;;3.85;50.15
71573;BME280;59408;51.032;9.410;2023-02-28T10:44:48;100351.16;;;3.80;50.39
71573;BME280;59408;51.032;9.410;2023-02-28T10:47:16;100348.38;;;4.17;50.10
71573;BME280;59408;51.032;9.410;2023-02-28T10:49:48;100344.38;;;4.40;49.12
71573;BME280;59408;51.032;9.410;2023-02-28T10:52:35;100342.31;;;4.78;48.04
71573;BME280;59408;51.032;9.410;2023-02-28T10:55:18;100342.03;;;4.84;47.99
71573;BME280;59408;51.032;9.410;2023-02-28T10:57:47;100341.22;;;4.63;48.85
71573;BME280;59408;51.032;9.410;2023-02-28T11:00:16;100342.22;;;4.42;48.77
71573;BME280;59408;51.032;9.410;2023-02-28T11:02:43;100340.34;;;4.48;49.20
71573;BME280;59408;51.032;9.410;2023-02-28T11:05:26;100342.25;;;4.52;47.99
71573;BME280;59408;51.032;9.410;2023-02-28T11:07:53;100338.50;;;4.84;48.37
71573;BME280;59408;51.032;9.410;2023-02-28T11:10:25;100325.84;;;5.20;46.73
71573;BME280;59408;51.032;9.410;2023-02-28T11:12:55;100328.28;;;5.16;46.97
71573;BME280;59408;51.032;9.410;2023-02-28T11:15:26;100326.13;;;4.93;46.46
71573;BME280;59408;51.032;9.410;2023-02-28T11:17:54;100322.03;;;4.75;46.23
71573;BME280;59408;51.032;9.410;2023-02-28T11:20:27;100316.94;;;5.14;47.19
71573;BME280;59408;51.032;9.410;2023-02-28T11:22:54;100317.97;;;5.49;45.96
71573;BME280;59408;51.032;9.410;2023-02-28T11:25:25;100312.47;;;5.79;43.59
71573;BME280;59408;51.032;9.410;2023-02-28T11:27:54;100313.00;;;5.86;45.80
71573;BME280;59408;51.032;9.410;2023-02-28T11:30:31;100315.34;;;6.08;43.30
71573;BME280;59408;51.032;9.410;2023-02-28T11:32:58;100308.56;;;6.10;44.08
71573;BME280;59408;51.032;9.410;2023-02-28T11:35:29;100309.75;;;5.84;44.48
71573;BME280;59408;51.032;9.410;2023-02-28T11:37:57;100304.16;;;5.60;44.18
71573;BME280;59408;51.032;9.410;2023-02-28T11:40:31;100302.41;;;5.95;45.42
71573;BME280;59408;51.032;9.410;2023-02-28T11:43:10;100308.31;;;6.07;44.03
71573;BME280;59408;51.032;9.410;2023-02-28T11:48:43;100298.13;;;6.77;45.09
71573;BME280;59408;51.032;9.410;2023-02-28T11:51:19;100307.00;;;6.87;44.78
71573;BME280;59408;51.032;9.410;2023-02-28T11:54:00;100299.88;;;6.63;43.72
71573;BME280;59408;51.032;9.410;2023-02-28T11:56:32;100298.03;;;6.53;43.34
71573;BME280;59408;51.032;9.410;2023-02-28T11:59:13;100308.38;;;6.85;43.65
71573;BME280;59408;51.032;9.410;2023-02-28T12:02:00;100293.75;;;7.15;43.87
71573;BME280;59408;51.032;9.410;2023-02-28T12:04:38;100298.00;;;6.92;43.86
71573;BME280;59408;51.032;9.410;2023-02-28T12:07:14;100297.00;;;7.17;42.35
71573;BME280;59408;51.032;9.410;2023-02-28T12:09:50;100294.19;;;6.64;43.04
71573;BME280;59408;51.032;9.410;2023-02-28T12:12:29;100296.84;;;7.03;43.18
71573;BME280;59408;51.032;9.410;2023-02-28T12:15:13;100297.31;;;7.10;43.15
71573;BME280;59408;51.032;9.410;2023-02-28T12:17:58;100286.88;;;7.27;43.13
71573;BME280;59408;51.032;9.410;2023-02-28T12:20:35;100292.13;;;7.72;41.65
71573;BME280;59408;51.032;9.410;2023-02-28T12:23:21;100288.38;;;7.91;41.46
71573;BME280;59408;51.032;9.410;2023-02-28T12:25:57;100290.81;;;8.12;42.97
71573;BME280;59408;51.032;9.410;2023-02-28T12:28:33;100287.38;;;8.06;40.65
71573;BME280;59408;51.032;9.410;2023-02-28T12:31:04;100287.34;;;7.63;43.84
71573;BME280;59408;51.032;9.410;2023-02-28T12:33:34;100278.00;;;7.93;42.72
71573;BME280;59408;51.032;9.410;2023-02-28T12:36:05;100281.78;;;7.97;42.40
71573;BME280;59408;51.032;9.410;2023-02-28T12:38:39;100282.88;;;7.96;41.82
71573;BME280;59408;51.032;9.410;2023-02-28T12:41:12;100275.19;;;8.22;41.68
71573;BME280;59408;51.032;9.410;2023-02-28T12:43:43;100267.97;;;8.13;42.66
71573;BME280;59408;51.032;9.410;2023-02-28T12:46:13;100264.84;;;8.24;41.11
71573;BME280;59408;51.032;9.410;2023-02-28T12:48:43;100271.59;;;8.08;41.30
71573;BME280;59408;51.032;9.410;2023-02-28T12:51:11;100259.69;;;8.42;41.64
71573;BME280;59408;51.032;9.410;2023-02-28T12:53:51;100256.88;;;8.65;40.74
71573;BME280;59408;51.032;9.410;2023-02-28T12:56:24;100254.94;;;8.33;41.59
71573;BME280;59408;51.032;9.410;2023-02-28T12:58:58;100248.25;;;8.45;42.36
71573;BME280;59408;51.032;9.410;2023-02-28T13:01:51;100244.72;;;8.44;41.97
71573;BME280;59408;51.032;9.410;2023-02-28T13:04:45;100246.16;;;8.74;40.61
71573;BME280;59408;51.032;9.410;2023-02-28T13:10:17;100250.56;;;9.02;41.00
71573;BME280;59408;51.032;9.410;2023-02-28T13:12:49;100251.38;;;8.70;39.32
71573;BME280;59408;51.032;9.410;2023-02-28T13:15:22;100251.78;;;8.77;40.52
71573;BME280;59408;51.032;9.410;2023-02-28T13:17:52;100244.81;;;9.04;39.66